Quincy, WA

8:32 PM PDT on August 29, 2016 (GMT -0700)
Crescent bar | | Change Station

Elev 568 ft 47.21 °N, 119.99 °W | Updated 6 seconds ago

Clear
Clear
85.1 °F
Feels Like 82 °F
N
0.9
Wind Variable Wind from South
Gusts 2.5 mph

Today
High -- | Low -- °F
--% Chance of Precip.
Yesterday
High -- | Low -- °F
Precip. -- in
Pressure 29.86 in
Visibility 10.0 miles
Clouds Clear
Heat Index 82 °F
Dew Point 45 °F
Humidity 25%
Rainfall 0.00 in
Snow Depth Not available.
6:15 AM 7:44 PM
Waning Crescent, 5% visible
METAR KEPH 300253Z AUTO 00000KT 10SM CLR 27/06 A2988 RMK AO2 SLP109 T02670061 56006
Pressure 29.86 in
Visibility 10.0 miles
Clouds Clear
Heat Index 82 °F
Dew Point 45 °F
Humidity 25%
Rainfall 0.00 in
Snow Depth Not available.
6:15 AM 7:44 PM
Waning Crescent, 5% visible
METAR KEPH 300253Z AUTO 00000KT 10SM CLR 27/06 A2988 RMK AO2 SLP109 T02670061 56006

10-Day Weather Forecast

Almanac

Astronomy

Aug. 29, 2016 Rise Set
Actual Time
Civil Twilight
Nautical Twilight
Astronomical Twilight
Moon
Length of Visible Light
Length of Day
Tomorrow will be .
, % of the Moon is Illuminated

Today's Extremes

State Highs State Lows

Community

WunderPhotos

Upload Photos

1,935,782 photos uploaded!

WunderBlog® & News

Nearby

Air Quality

  Air Quality AQ Index Pollutant
Not available.

Snow Depth

Station Depth Elevation

Earthquake Activity

City Distance Mag. Time & Date
Minimum magnitude displayed is 2.5.

Coastal Water Temperatures

Place Temperature

Stations

Nearby Weather Stations

Station Location Temp. Windchill Dew Point Humidity Wind Precip. Elev Updated Type
                   

Watches & Warnings

There are currently no watches in effect.